sensor_id;sensor_type;location;lat;lon;timestamp;temperature;humidity
63219;DHT22;49320;52.512;13.448;2023-12-04T00:00:33;1.00;80.40
63219;DHT22;49320;52.512;13.448;2023-12-04T00:02:59;1.00;81.20
63219;DHT22;49320;52.512;13.448;2023-12-04T00:05:26;1.00;81.30
63219;DHT22;49320;52.512;13.448;2023-12-04T00:07:53;0.90;81.30
63219;DHT22;49320;52.512;13.448;2023-12-04T00:10:21;0.80;81.40
63219;DHT22;49320;52.512;13.448;2023-12-04T00:12:48;0.90;81.60
63219;DHT22;49320;52.512;13.448;2023-12-04T00:15:18;0.90;81.60
63219;DHT22;49320;52.512;13.448;2023-12-04T00:17:45;0.90;81.90
63219;DHT22;49320;52.512;13.448;2023-12-04T00:20:12;0.80;81.80
63219;DHT22;49320;52.512;13.448;2023-12-04T00:22:39;0.90;81.80
63219;DHT22;49320;52.512;13.448;2023-12-04T00:25:06;2.10;82.50
63219;DHT22;49320;52.512;13.448;2023-12-04T00:27:33;0.80;81.60
63219;DHT22;49320;52.512;13.448;2023-12-04T00:30:00;0.80;81.60
63219;DHT22;49320;52.512;13.448;2023-12-04T00:32:30;0.80;81.60
63219;DHT22;49320;52.512;13.448;2023-12-04T00:34:57;0.70;81.60
63219;DHT22;49320;52.512;13.448;2023-12-04T00:37:26;0.70;81.80
63219;DHT22;49320;52.512;13.448;2023-12-04T00:39:53;0.70;81.90
63219;DHT22;49320;52.512;13.448;2023-12-04T00:42:20;0.60;81.90
63219;DHT22;49320;52.512;13.448;2023-12-04T00:44:47;0.60;82.00
63219;DHT22;49320;52.512;13.448;2023-12-04T00:47:14;0.60;82.10
63219;DHT22;49320;52.512;13.448;2023-12-04T00:49:41;1.20;82.60
63219;DHT22;49320;52.512;13.448;2023-12-04T00:52:08;0.50;82.30
63219;DHT22;49320;52.512;13.448;2023-12-04T00:54:35;0.60;82.30
63219;DHT22;49320;52.512;13.448;2023-12-04T00:57:02;0.50;82.30
63219;DHT22;49320;52.512;13.448;2023-12-04T00:59:28;0.60;82.30
63219;DHT22;49320;52.512;13.448;2023-12-04T01:01:55;0.50;82.30
63219;DHT22;49320;52.512;13.448;2023-12-04T01:04:22;0.50;81.90
63219;DHT22;49320;52.512;13.448;2023-12-04T01:06:49;0.50;82.50
63219;DHT22;49320;52.512;13.448;2023-12-04T01:09:16;0.40;82.50
63219;DHT22;49320;52.512;13.448;2023-12-04T01:11:43;0.50;82.70
63219;DHT22;49320;52.512;13.448;2023-12-04T01:14:09;0.30;82.70
63219;DHT22;49320;52.512;13.448;2023-12-04T01:16:37;0.40;83.00
63219;DHT22;49320;52.512;13.448;2023-12-04T01:19:04;0.40;83.10
63219;DHT22;49320;52.512;13.448;2023-12-04T01:21:32;0.50;83.40
63219;DHT22;49320;52.512;13.448;2023-12-04T01:23:59;0.40;83.40
63219;DHT22;49320;52.512;13.448;2023-12-04T01:26:26;0.50;83.50
63219;DHT22;49320;52.512;13.448;2023-12-04T01:28:53;0.40;83.50
63219;DHT22;49320;52.512;13.448;2023-12-04T01:31:20;0.40;83.50
63219;DHT22;49320;52.512;13.448;2023-12-04T01:33:47;0.40;83.50
63219;DHT22;49320;52.512;13.448;2023-12-04T01:36:14;0.40;83.50
63219;DHT22;49320;52.512;13.448;2023-12-04T01:38:41;0.40;83.50
63219;DHT22;49320;52.512;13.448;2023-12-04T01:41:07;0.40;83.50
63219;DHT22;49320;52.512;13.448;2023-12-04T01:43:34;0.40;82.90
63219;DHT22;49320;52.512;13.448;2023-12-04T01:46:01;1.60;84.30
63219;DHT22;49320;52.512;13.448;2023-12-04T01:48:29;0.40;83.60
63219;DHT22;49320;52.512;13.448;2023-12-04T01:50:58;0.40;83.60
63219;DHT22;49320;52.512;13.448;2023-12-04T01:53:28;0.40;83.60
63219;DHT22;49320;52.512;13.448;2023-12-04T01:55:55;0.30;83.60
63219;DHT22;49320;52.512;13.448;2023-12-04T01:58:22;0.30;83.70
63219;DHT22;49320;52.512;13.448;2023-12-04T02:00:49;0.30;83.90
63219;DHT22;49320;52.512;13.448;2023-12-04T02:03:16;0.30;83.90
63219;DHT22;49320;52.512;13.448;2023-12-04T02:05:47;0.30;83.80
63219;DHT22;49320;52.512;13.448;2023-12-04T02:08:17;0.30;83.80
63219;DHT22;49320;52.512;13.448;2023-12-04T02:10:45;0.30;83.70
63219;DHT22;49320;52.512;13.448;2023-12-04T02:13:11;0.30;83.70
63219;DHT22;49320;52.512;13.448;2023-12-04T02:15:38;0.30;83.90
63219;DHT22;49320;52.512;13.448;2023-12-04T02:18:05;0.30;83.20
63219;DHT22;49320;52.512;13.448;2023-12-04T02:20:33;0.30;83.90
63219;DHT22;49320;52.512;13.448;2023-12-04T02:23:03;0.20;83.90
63219;DHT22;49320;52.512;13.448;2023-12-04T02:25:30;0.20;83.90
63219;DHT22;49320;52.512;13.448;2023-12-04T02:28:06;0.20;84.00
63219;DHT22;49320;52.512;13.448;2023-12-04T02:30:36;0.30;84.00
63219;DHT22;49320;52.512;13.448;2023-12-04T02:33:05;0.20;84.00
63219;DHT22;49320;52.512;13.448;2023-12-04T02:35:35;0.20;84.00
63219;DHT22;49320;52.512;13.448;2023-12-04T02:38:04;0.20;84.20
63219;DHT22;49320;52.512;13.448;2023-12-04T02:40:32;0.20;84.20
63219;DHT22;49320;52.512;13.448;2023-12-04T02:42:59;0.30;84.30
63219;DHT22;49320;52.512;13.448;2023-12-04T02:45:26;0.50;84.60
63219;DHT22;49320;52.512;13.448;2023-12-04T02:47:52;0.20;84.40
63219;DHT22;49320;52.512;13.448;2023-12-04T02:50:19;0.20;84.40
63219;DHT22;49320;52.512;13.448;2023-12-04T02:52:46;0.20;83.70
63219;DHT22;49320;52.512;13.448;2023-12-04T02:55:13;0.20;84.40
63219;DHT22;49320;52.512;13.448;2023-12-04T02:57:40;0.20;84.40
63219;DHT22;49320;52.512;13.448;2023-12-04T03:00:07;0.20;84.30
63219;DHT22;49320;52.512;13.448;2023-12-04T03:02:34;0.20;84.30
63219;DHT22;49320;52.512;13.448;2023-12-04T03:05:01;0.20;84.80
63219;DHT22;49320;52.512;13.448;2023-12-04T03:07:28;0.20;84.40
63219;DHT22;49320;52.512;13.448;2023-12-04T03:09:56;0.20;84.20
63219;DHT22;49320;52.512;13.448;2023-12-04T03:12:23;0.20;84.30
63219;DHT22;49320;52.512;13.448;2023-12-04T03:14:50;0.20;84.30
63219;DHT22;49320;52.512;13.448;2023-12-04T03:17:16;0.20;84.20
63219;DHT22;49320;52.512;13.448;2023-12-04T03:19:43;0.20;84.20
63219;DHT22;49320;52.512;13.448;2023-12-04T03:22:11;0.40;84.10
63219;DHT22;49320;52.512;13.448;2023-12-04T03:24:38;0.20;83.80
63219;DHT22;49320;52.512;13.448;2023-12-04T03:27:05;0.20;83.50
63219;DHT22;49320;52.512;13.448;2023-12-04T03:29:33;0.20;83.50
63219;DHT22;49320;52.512;13.448;2023-12-04T03:32:00;0.10;83.40
63219;DHT22;49320;52.512;13.448;2023-12-04T03:34:27;0.10;83.40
63219;DHT22;49320;52.512;13.448;2023-12-04T03:36:53;0.10;82.70
63219;DHT22;49320;52.512;13.448;2023-12-04T03:39:20;0.00;83.20
63219;DHT22;49320;52.512;13.448;2023-12-04T03:41:47;-1.50;82.30
63219;DHT22;49320;52.512;13.448;2023-12-04T03:44:14;0.00;82.80
63219;DHT22;49320;52.512;13.448;2023-12-04T03:46:41;-0.10;83.30
63219;DHT22;49320;52.512;13.448;2023-12-04T03:49:08;-0.10;83.30
63219;DHT22;49320;52.512;13.448;2023-12-04T03:51:35;-0.10;83.40
63219;DHT22;49320;52.512;13.448;2023-12-04T03:54:02;-0.10;83.60
63219;DHT22;49320;52.512;13.448;2023-12-04T03:56:29;-0.10;83.60
63219;DHT22;49320;52.512;13.448;2023-12-04T03:58:55;0.00;83.90
63219;DHT22;49320;52.512;13.448;2023-12-04T04:01:22;-0.10;83.90
63219;DHT22;49320;52.512;13.448;2023-12-04T04:03:49;-0.10;84.20
63219;DHT22;49320;52.512;13.448;2023-12-04T04:06:16;-0.10;83.60
63219;DHT22;49320;52.512;13.448;2023-12-04T04:08:43;-0.20;84.20
63219;DHT22;49320;52.512;13.448;2023-12-04T04:11:10;-0.20;84.20
63219;DHT22;49320;52.512;13.448;2023-12-04T04:13:38;-0.10;83.50
63219;DHT22;49320;52.512;13.448;2023-12-04T04:16:05;-0.40;83.90
63219;DHT22;49320;52.512;13.448;2023-12-04T04:18:32;-0.10;84.00
63219;DHT22;49320;52.512;13.448;2023-12-04T04:21:00;-0.10;83.10
63219;DHT22;49320;52.512;13.448;2023-12-04T04:23:27;-0.10;83.80
63219;DHT22;49320;52.512;13.448;2023-12-04T04:25:54;-0.10;83.10
63219;DHT22;49320;52.512;13.448;2023-12-04T04:28:21;0.00;83.20
63219;DHT22;49320;52.512;13.448;2023-12-04T04:30:47;0.00;83.80
63219;DHT22;49320;52.512;13.448;2023-12-04T04:33:14;-0.10;83.60
63219;DHT22;49320;52.512;13.448;2023-12-04T04:35:42;-0.10;83.60
63219;DHT22;49320;52.512;13.448;2023-12-04T04:38:09;-0.10;83.60
63219;DHT22;49320;52.512;13.448;2023-12-04T04:40:36;-0.10;83.60
63219;DHT22;49320;52.512;13.448;2023-12-04T04:43:03;-0.10;83.50
63219;DHT22;49320;52.512;13.448;2023-12-04T04:45:29;-0.20;83.30
63219;DHT22;49320;52.512;13.448;2023-12-04T04:47:56;-0.10;83.20
63219;DHT22;49320;52.512;13.448;2023-12-04T04:50:23;0.00;83.20
63219;DHT22;49320;52.512;13.448;2023-12-04T04:52:50;0.70;83.60
63219;DHT22;49320;52.512;13.448;2023-12-04T04:55:17;-0.30;82.90
63219;DHT22;49320;52.512;13.448;2023-12-04T04:58:04;-0.10;82.90
63219;DHT22;49320;52.512;13.448;2023-12-04T05:00:31;0.10;83.20
63219;DHT22;49320;52.512;13.448;2023-12-04T05:02:58;-0.10;83.30
63219;DHT22;49320;52.512;13.448;2023-12-04T05:05:24;0.10;83.40
63219;DHT22;49320;52.512;13.448;2023-12-04T05:07:51;-0.10;83.30
63219;DHT22;49320;52.512;13.448;2023-12-04T05:10:18;0.00;82.60
63219;DHT22;49320;52.512;13.448;2023-12-04T05:12:45;0.00;82.70
63219;DHT22;49320;52.512;13.448;2023-12-04T05:15:12;0.00;83.40
63219;DHT22;49320;52.512;13.448;2023-12-04T05:17:39;0.00;83.30
63219;DHT22;49320;52.512;13.448;2023-12-04T05:20:07;0.00;83.30
63219;DHT22;49320;52.512;13.448;2023-12-04T05:22:35;0.00;83.20
63219;DHT22;49320;52.512;13.448;2023-12-04T05:25:02;0.00;83.10
63219;DHT22;49320;52.512;13.448;2023-12-04T05:27:29;-0.10;82.80
63219;DHT22;49320;52.512;13.448;2023-12-04T05:29:56;0.00;83.00
63219;DHT22;49320;52.512;13.448;2023-12-04T05:32:23;0.00;83.00
63219;DHT22;49320;52.512;13.448;2023-12-04T05:34:50;0.00;83.00
63219;DHT22;49320;52.512;13.448;2023-12-04T05:37:17;0.00;82.80
63219;DHT22;49320;52.512;13.448;2023-12-04T05:39:45;0.00;82.80
63219;DHT22;49320;52.512;13.448;2023-12-04T05:42:12;0.60;83.20
63219;DHT22;49320;52.512;13.448;2023-12-04T05:44:38;0.00;83.00
63219;DHT22;49320;52.512;13.448;2023-12-04T05:47:05;0.40;83.30
63219;DHT22;49320;52.512;13.448;2023-12-04T05:49:34;0.00;83.30
63219;DHT22;49320;52.512;13.448;2023-12-04T05:52:02;0.00;83.30
63219;DHT22;49320;52.512;13.448;2023-12-04T05:54:29;0.00;83.30
63219;DHT22;49320;52.512;13.448;2023-12-04T05:56:56;0.00;82.60
63219;DHT22;49320;52.512;13.448;2023-12-04T05:59:22;0.00;83.40
63219;DHT22;49320;52.512;13.448;2023-12-04T06:01:49;1.30;84.20
63219;DHT22;49320;52.512;13.448;2023-12-04T06:04:16;0.10;83.60
63219;DHT22;49320;52.512;13.448;2023-12-04T06:06:43;0.10;82.80
63219;DHT22;49320;52.512;13.448;2023-12-04T06:09:10;0.00;83.40
63219;DHT22;49320;52.512;13.448;2023-12-04T06:11:36;0.10;83.60
63219;DHT22;49320;52.512;13.448;2023-12-04T06:14:03;0.10;83.60
63219;DHT22;49320;52.512;13.448;2023-12-04T06:16:30;0.10;83.00
63219;DHT22;49320;52.512;13.448;2023-12-04T06:21:24;0.20;83.20
63219;DHT22;49320;52.512;13.448;2023-12-04T06:23:51;0.10;83.70
63219;DHT22;49320;52.512;13.448;2023-12-04T06:26:18;0.20;83.70
63219;DHT22;49320;52.512;13.448;2023-12-04T06:28:46;0.30;83.10
63219;DHT22;49320;52.512;13.448;2023-12-04T06:31:13;0.30;83.70
63219;DHT22;49320;52.512;13.448;2023-12-04T06:33:40;0.30;83.80
63219;DHT22;49320;52.512;13.448;2023-12-04T06:36:08;0.40;83.70
63219;DHT22;49320;52.512;13.448;2023-12-04T06:38:39;0.40;83.70
63219;DHT22;49320;52.512;13.448;2023-12-04T06:41:08;0.40;83.60
63219;DHT22;49320;52.512;13.448;2023-12-04T06:43:35;0.50;83.60
63219;DHT22;49320;52.512;13.448;2023-12-04T06:46:04;0.50;83.40
63219;DHT22;49320;52.512;13.448;2023-12-04T06:48:32;0.50;83.30
63219;DHT22;49320;52.512;13.448;2023-12-04T06:50:59;0.50;82.80
63219;DHT22;49320;52.512;13.448;2023-12-04T06:53:26;0.50;82.70
63219;DHT22;49320;52.512;13.448;2023-12-04T06:55:53;0.60;82.70
63219;DHT22;49320;52.512;13.448;2023-12-04T06:58:20;0.60;82.50
63219;DHT22;49320;52.512;13.448;2023-12-04T07:00:47;0.60;82.60
63219;DHT22;49320;52.512;13.448;2023-12-04T07:03:15;0.60;82.50
63219;DHT22;49320;52.512;13.448;2023-12-04T07:05:43;0.60;82.70
63219;DHT22;49320;52.512;13.448;2023-12-04T07:08:09;0.70;82.00
63219;DHT22;49320;52.512;13.448;2023-12-04T07:10:37;0.50;82.80
63219;DHT22;49320;52.512;13.448;2023-12-04T07:13:03;0.70;82.80
63219;DHT22;49320;52.512;13.448;2023-12-04T07:15:30;0.70;83.00
63219;DHT22;49320;52.512;13.448;2023-12-04T07:17:57;0.70;82.70
63219;DHT22;49320;52.512;13.448;2023-12-04T07:20:24;0.80;82.60
63219;DHT22;49320;52.512;13.448;2023-12-04T07:22:51;0.80;82.40
63219;DHT22;49320;52.512;13.448;2023-12-04T07:25:18;0.80;82.30
63219;DHT22;49320;52.512;13.448;2023-12-04T07:27:45;0.70;82.10
63219;DHT22;49320;52.512;13.448;2023-12-04T07:30:12;0.80;82.00
63219;DHT22;49320;52.512;13.448;2023-12-04T07:32:43;0.90;81.80
63219;DHT22;49320;52.512;13.448;2023-12-04T07:35:10;0.90;82.40
63219;DHT22;49320;52.512;13.448;2023-12-04T07:37:37;0.90;80.80
63219;DHT22;49320;52.512;13.448;2023-12-04T07:40:05;0.40;80.90
63219;DHT22;49320;52.512;13.448;2023-12-04T07:42:34;0.90;81.80
63219;DHT22;49320;52.512;13.448;2023-12-04T07:45:01;1.00;80.60
63219;DHT22;49320;52.512;13.448;2023-12-04T07:47:28;1.00;81.80
63219;DHT22;49320;52.512;13.448;2023-12-04T07:49:55;0.70;81.50
63219;DHT22;49320;52.512;13.448;2023-12-04T07:52:22;1.10;81.70
63219;DHT22;49320;52.512;13.448;2023-12-04T07:54:49;2.40;82.30
63219;DHT22;49320;52.512;13.448;2023-12-04T07:57:16;1.10;81.30
63219;DHT22;49320;52.512;13.448;2023-12-04T07:59:43;1.20;81.30
63219;DHT22;49320;52.512;13.448;2023-12-04T08:02:09;1.20;81.30
63219;DHT22;49320;52.512;13.448;2023-12-04T08:04:36;1.20;81.40
63219;DHT22;49320;52.512;13.448;2023-12-04T08:07:03;1.30;80.50
63219;DHT22;49320;52.512;13.448;2023-12-04T08:09:31;1.30;81.30
63219;DHT22;49320;52.512;13.448;2023-12-04T08:11:59;1.40;81.00
63219;DHT22;49320;52.512;13.448;2023-12-04T08:14:26;1.50;80.10
63219;DHT22;49320;52.512;13.448;2023-12-04T08:16:54;1.40;80.90
63219;DHT22;49320;52.512;13.448;2023-12-04T08:19:21;1.40;80.40
63219;DHT22;49320;52.512;13.448;2023-12-04T08:21:49;1.50;80.60
63219;DHT22;49320;52.512;13.448;2023-12-04T08:24:16;1.50;80.40
63219;DHT22;49320;52.512;13.448;2023-12-04T08:26:45;1.60;80.60
63219;DHT22;49320;52.512;13.448;2023-12-04T08:29:12;1.60;80.70
63219;DHT22;49320;52.512;13.448;2023-12-04T08:31:39;1.70;80.80
63219;DHT22;49320;52.512;13.448;2023-12-04T08:34:06;1.70;80.60
63219;DHT22;49320;52.512;13.448;2023-12-04T08:36:33;1.70;80.60
63219;DHT22;49320;52.512;13.448;2023-12-04T08:39:12;1.90;78.90
63219;DHT22;49320;52.512;13.448;2023-12-04T08:41:39;1.50;80.00
63219;DHT22;49320;52.512;13.448;2023-12-04T08:44:16;1.90;80.10
63219;DHT22;49320;52.512;13.448;2023-12-04T08:46:44;2.00;80.00
63219;DHT22;49320;52.512;13.448;2023-12-04T08:49:11;2.00;79.50
63219;DHT22;49320;52.512;13.448;2023-12-04T08:51:38;2.10;79.30
63219;DHT22;49320;52.512;13.448;2023-12-04T08:54:06;2.10;79.00
63219;DHT22;49320;52.512;13.448;2023-12-04T08:56:36;2.10;79.00
63219;DHT22;49320;52.512;13.448;2023-12-04T08:59:03;2.30;78.90
63219;DHT22;49320;52.512;13.448;2023-12-04T09:01:30;2.30;78.80
63219;DHT22;49320;52.512;13.448;2023-12-04T09:03:58;2.30;78.50
63219;DHT22;49320;52.512;13.448;2023-12-04T09:06:25;2.30;78.40
63219;DHT22;49320;52.512;13.448;2023-12-04T09:09:12;2.40;78.40
63219;DHT22;49320;52.512;13.448;2023-12-04T09:11:43;2.40;78.20
63219;DHT22;49320;52.512;13.448;2023-12-04T09:14:10;2.40;78.00
63219;DHT22;49320;52.512;13.448;2023-12-04T09:16:37;2.40;77.90
63219;DHT22;49320;52.512;13.448;2023-12-04T09:19:04;3.10;78.40
63219;DHT22;49320;52.512;13.448;2023-12-04T09:21:31;2.50;77.60
63219;DHT22;49320;52.512;13.448;2023-12-04T09:23:58;2.50;77.40
63219;DHT22;49320;52.512;13.448;2023-12-04T09:26:25;2.50;77.20
63219;DHT22;49320;52.512;13.448;2023-12-04T09:28:52;2.60;77.10
63219;DHT22;49320;52.512;13.448;2023-12-04T09:31:19;2.60;77.00
63219;DHT22;49320;52.512;13.448;2023-12-04T09:33:46;2.60;76.90
63219;DHT22;49320;52.512;13.448;2023-12-04T09:36:14;2.70;76.20
63219;DHT22;49320;52.512;13.448;2023-12-04T09:41:10;2.70;76.30
63219;DHT22;49320;52.512;13.448;2023-12-04T09:43:39;2.70;76.60
63219;DHT22;49320;52.512;13.448;2023-12-04T09:46:08;2.70;76.40
63219;DHT22;49320;52.512;13.448;2023-12-04T09:48:36;2.80;76.40
63219;DHT22;49320;52.512;13.448;2023-12-04T09:51:06;2.80;76.50
63219;DHT22;49320;52.512;13.448;2023-12-04T09:53:33;2.80;76.60
63219;DHT22;49320;52.512;13.448;2023-12-04T09:56:03;2.90;76.60
63219;DHT22;49320;52.512;13.448;2023-12-04T09:58:31;2.90;76.20
63219;DHT22;49320;52.512;13.448;2023-12-04T10:01:01;3.00;75.90
63219;DHT22;49320;52.512;13.448;2023-12-04T10:03:28;3.00;75.80
63219;DHT22;49320;52.512;13.448;2023-12-04T10:05:57;3.00;76.00
63219;DHT22;49320;52.512;13.448;2023-12-04T10:08:23;3.10;75.90
63219;DHT22;49320;52.512;13.448;2023-12-04T10:10:50;3.10;76.00
63219;DHT22;49320;52.512;13.448;2023-12-04T10:13:17;3.20;75.90
63219;DHT22;49320;52.512;13.448;2023-12-04T10:16:04;3.30;74.10
63219;DHT22;49320;52.512;13.448;2023-12-04T10:18:31;3.30;73.70
63219;DHT22;49320;52.512;13.448;2023-12-04T10:20:59;3.30;75.00
63219;DHT22;49320;52.512;13.448;2023-12-04T10:23:40;3.40;75.30
63219;DHT22;49320;52.512;13.448;2023-12-04T10:26:08;3.40;74.80
63219;DHT22;49320;52.512;13.448;2023-12-04T10:28:35;3.40;75.00
63219;DHT22;49320;52.512;13.448;2023-12-04T10:31:03;3.50;74.50
63219;DHT22;49320;52.512;13.448;2023-12-04T10:33:33;3.50;74.10
63219;DHT22;49320;52.512;13.448;2023-12-04T10:36:00;3.60;73.20
63219;DHT22;49320;52.512;13.448;2023-12-04T10:38:29;3.70;72.70
63219;DHT22;49320;52.512;13.448;2023-12-04T10:40:56;3.60;73.80
63219;DHT22;49320;52.512;13.448;2023-12-04T10:43:47;3.60;73.60
63219;DHT22;49320;52.512;13.448;2023-12-04T10:46:24;3.80;71.70
63219;DHT22;49320;52.512;13.448;2023-12-04T10:48:52;3.80;73.10
63219;DHT22;49320;52.512;13.448;2023-12-04T10:51:20;3.80;73.20
63219;DHT22;49320;52.512;13.448;2023-12-04T10:53:49;3.80;72.60
63219;DHT22;49320;52.512;13.448;2023-12-04T10:56:27;3.80;72.80
63219;DHT22;49320;52.512;13.448;2023-12-04T10:59:01;3.90;72.80
63219;DHT22;49320;52.512;13.448;2023-12-04T11:01:35;3.90;72.90
63219;DHT22;49320;52.512;13.448;2023-12-04T11:04:06;3.90;72.80
63219;DHT22;49320;52.512;13.448;2023-12-04T11:06:39;4.00;72.80
63219;DHT22;49320;52.512;13.448;2023-12-04T11:09:07;4.00;72.70
63219;DHT22;49320;52.512;13.448;2023-12-04T11:11:36;4.00;73.10
63219;DHT22;49320;52.512;13.448;2023-12-04T11:14:12;4.00;72.80
63219;DHT22;49320;52.512;13.448;2023-12-04T11:16:51;4.00;72.70
63219;DHT22;49320;52.512;13.448;2023-12-04T11:19:28;4.00;72.10
63219;DHT22;49320;52.512;13.448;2023-12-04T11:22:19;4.10;72.00
63219;DHT22;49320;52.512;13.448;2023-12-04T11:24:48;4.10;72.10
63219;DHT22;49320;52.512;13.448;2023-12-04T11:27:18;4.10;72.30
63219;DHT22;49320;52.512;13.448;2023-12-04T11:29:47;4.10;72.30
63219;DHT22;49320;52.512;13.448;2023-12-04T11:32:15;4.10;72.30
63219;DHT22;49320;52.512;13.448;2023-12-04T11:34:50;4.10;72.40
63219;DHT22;49320;52.512;13.448;2023-12-04T11:37:20;4.10;72.30
63219;DHT22;49320;52.512;13.448;2023-12-04T11:39:49;4.10;72.30
63219;DHT22;49320;52.512;13.448;2023-12-04T11:42:23;4.10;72.30
63219;DHT22;49320;52.512;13.448;2023-12-04T11:44:57;4.20;72.90
63219;DHT22;49320;52.512;13.448;2023-12-04T11:47:24;4.20;72.50
63219;DHT22;49320;52.512;13.448;2023-12-04T11:49:51;4.10;71.90
63219;DHT22;49320;52.512;13.448;2023-12-04T11:52:32;4.30;71.90
63219;DHT22;49320;52.512;13.448;2023-12-04T11:55:03;4.20;71.50
63219;DHT22;49320;52.512;13.448;2023-12-04T11:57:37;4.30;71.90
63219;DHT22;49320;52.512;13.448;2023-12-04T12:00:19;4.30;72.20
63219;DHT22;49320;52.512;13.448;2023-12-04T12:05:41;4.40;71.30
63219;DHT22;49320;52.512;13.448;2023-12-04T12:08:09;4.30;72.00
63219;DHT22;49320;52.512;13.448;2023-12-04T12:10:38;4.30;71.80
63219;DHT22;49320;52.512;13.448;2023-12-04T12:13:04;4.40;71.70
63219;DHT22;49320;52.512;13.448;2023-12-04T12:15:33;4.40;71.20
63219;DHT22;49320;52.512;13.448;2023-12-04T12:18:00;4.40;71.50
63219;DHT22;49320;52.512;13.448;2023-12-04T12:20:27;4.40;71.30
63219;DHT22;49320;52.512;13.448;2023-12-04T12:22:54;4.40;71.40
63219;DHT22;49320;52.512;13.448;2023-12-04T12:25:23;4.40;71.20
63219;DHT22;49320;52.512;13.448;2023-12-04T12:27:51;4.40;70.60
63219;DHT22;49320;52.512;13.448;2023-12-04T12:30:18;4.30;71.50
63219;DHT22;49320;52.512;13.448;2023-12-04T12:32:45;4.40;71.60
63219;DHT22;49320;52.512;13.448;2023-12-04T12:35:12;4.40;71.50
63219;DHT22;49320;52.512;13.448;2023-12-04T12:37:39;4.30;71.30
63219;DHT22;49320;52.512;13.448;2023-12-04T12:40:07;4.50;71.40
63219;DHT22;49320;52.512;13.448;2023-12-04T12:42:38;4.40;70.80
63219;DHT22;49320;52.512;13.448;2023-12-04T12:45:09;4.30;71.50
63219;DHT22;49320;52.512;13.448;2023-12-04T12:47:42;4.40;71.50
63219;DHT22;49320;52.512;13.448;2023-12-04T12:50:10;4.40;71.40
63219;DHT22;49320;52.512;13.448;2023-12-04T12:52:39;4.40;71.30
63219;DHT22;49320;52.512;13.448;2023-12-04T12:55:07;4.40;71.40
63219;DHT22;49320;52.512;13.448;2023-12-04T12:57:34;4.40;70.60
63219;DHT22;49320;52.512;13.448;2023-12-04T13:00:01;4.30;71.60
63219;DHT22;49320;52.512;13.448;2023-12-04T13:02:28;4.40;71.60
63219;DHT22;49320;52.512;13.448;2023-12-04T13:04:56;4.40;71.50
63219;DHT22;49320;52.512;13.448;2023-12-04T13:07:23;4.40;71.40
63219;DHT22;49320;52.512;13.448;2023-12-04T13:09:49;4.40;70.90
63219;DHT22;49320;52.512;13.448;2023-12-04T13:12:16;4.40;70.20
63219;DHT22;49320;52.512;13.448;2023-12-04T13:14:43;4.40;71.20
63219;DHT22;49320;52.512;13.448;2023-12-04T13:17:10;4.50;71.20
63219;DHT22;49320;52.512;13.448;2023-12-04T13:19:37;4.50;70.60
63219;DHT22;49320;52.512;13.448;2023-12-04T13:22:04;4.40;71.40
63219;DHT22;49320;52.512;13.448;2023-12-04T13:24:31;4.40;71.40
63219;DHT22;49320;52.512;13.448;2023-12-04T13:26:58;4.40;70.60
63219;DHT22;49320;52.512;13.448;2023-12-04T13:29:25;4.40;71.40
63219;DHT22;49320;52.512;13.448;2023-12-04T13:31:52;4.40;71.30
63219;DHT22;49320;52.512;13.448;2023-12-04T13:34:19;4.40;70.50
63219;DHT22;49320;52.512;13.448;2023-12-04T13:36:46;4.40;71.40
63219;DHT22;49320;52.512;13.448;2023-12-04T13:39:13;4.40;70.80
63219;DHT22;49320;52.512;13.448;2023-12-04T13:41:45;4.50;71.50
63219;DHT22;49320;52.512;13.448;2023-12-04T13:44:31;4.40;71.50
63219;DHT22;49320;52.512;13.448;2023-12-04T13:46:59;4.40;71.40
63219;DHT22;49320;52.512;13.448;2023-12-04T13:49:27;4.40;71.60
63219;DHT22;49320;52.512;13.448;2023-12-04T13:51:54;4.40;70.80
63219;DHT22;49320;52.512;13.448;2023-12-04T13:54:22;4.30;71.50
63219;DHT22;49320;52.512;13.448;2023-12-04T13:57:00;4.30;71.30
63219;DHT22;49320;52.512;13.448;2023-12-04T13:59:27;4.30;71.30
63219;DHT22;49320;52.512;13.448;2023-12-04T14:01:55;4.30;71.40
63219;DHT22;49320;52.512;13.448;2023-12-04T14:04:27;4.30;71.30
63219;DHT22;49320;52.512;13.448;2023-12-04T14:06:55;4.30;71.40
63219;DHT22;49320;52.512;13.448;2023-12-04T14:09:26;4.20;71.10
63219;DHT22;49320;52.512;13.448;2023-12-04T14:11:53;4.20;70.70
63219;DHT22;49320;52.512;13.448;2023-12-04T14:14:20;4.20;71.40
63219;DHT22;49320;52.512;13.448;2023-12-04T14:16:47;4.20;71.40
63219;DHT22;49320;52.512;13.448;2023-12-04T14:19:15;4.10;70.70
63219;DHT22;49320;52.512;13.448;2023-12-04T14:21:44;4.10;71.50
63219;DHT22;49320;52.512;13.448;2023-12-04T14:24:11;4.10;71.60
63219;DHT22;49320;52.512;13.448;2023-12-04T14:26:38;4.10;71.60
63219;DHT22;49320;52.512;13.448;2023-12-04T14:29:05;4.00;71.40
63219;DHT22;49320;52.512;13.448;2023-12-04T14:31:34;4.00;71.50
63219;DHT22;49320;52.512;13.448;2023-12-04T14:34:01;4.00;71.60
63219;DHT22;49320;52.512;13.448;2023-12-04T14:36:30;4.00;71.30
63219;DHT22;49320;52.512;13.448;2023-12-04T14:38:59;3.90;71.30
63219;DHT22;49320;52.512;13.448;2023-12-04T14:41:27;3.90;71.50
63219;DHT22;49320;52.512;13.448;2023-12-04T14:43:54;3.90;71.00
63219;DHT22;49320;52.512;13.448;2023-12-04T14:46:22;3.70;71.60
63219;DHT22;49320;52.512;13.448;2023-12-04T14:48:49;3.90;71.20
63219;DHT22;49320;52.512;13.448;2023-12-04T14:51:16;3.80;71.90
63219;DHT22;49320;52.512;13.448;2023-12-04T14:53:43;3.80;71.90
63219;DHT22;49320;52.512;13.448;2023-12-04T14:56:13;3.80;71.20
63219;DHT22;49320;52.512;13.448;2023-12-04T14:59:09;3.80;72.10
63219;DHT22;49320;52.512;13.448;2023-12-04T15:01:58;3.80;72.30
63219;DHT22;49320;52.512;13.448;2023-12-04T15:04:44;3.80;72.40
63219;DHT22;49320;52.512;13.448;2023-12-04T15:07:30;3.80;71.70
63219;DHT22;49320;52.512;13.448;2023-12-04T15:10:27;3.70;72.30
63219;DHT22;49320;52.512;13.448;2023-12-04T15:13:12;3.80;72.90
63219;DHT22;49320;52.512;13.448;2023-12-04T15:15:59;3.80;72.30
63219;DHT22;49320;52.512;13.448;2023-12-04T15:18:53;3.70;72.20
63219;DHT22;49320;52.512;13.448;2023-12-04T15:21:23;3.70;71.40
63219;DHT22;49320;52.512;13.448;2023-12-04T15:23:50;3.70;72.30
63219;DHT22;49320;52.512;13.448;2023-12-04T15:26:17;3.70;72.40
63219;DHT22;49320;52.512;13.448;2023-12-04T15:28:44;3.70;72.50
63219;DHT22;49320;52.512;13.448;2023-12-04T15:31:14;3.70;72.50
63219;DHT22;49320;52.512;13.448;2023-12-04T15:33:41;3.70;72.60
63219;DHT22;49320;52.512;13.448;2023-12-04T15:36:08;3.70;72.60
63219;DHT22;49320;52.512;13.448;2023-12-04T15:38:37;3.70;72.70
63219;DHT22;49320;52.512;13.448;2023-12-04T15:41:04;3.80;72.80
63219;DHT22;49320;52.512;13.448;2023-12-04T15:43:31;3.80;72.70
63219;DHT22;49320;52.512;13.448;2023-12-04T15:45:58;3.70;72.70